Terminal Aerodrome Forecast
Issued by NWS Sterling, VA

Current Version | Previous Version | Graphics & Text | Print | Product List | Glossary On
Versions: 1 2 3 4 5 6 7 8 9 10 11 12 13 14 15 16 17 18 19 20 21 22 23 24 25 26 27 28 29 30 31
000
FTUS41 KLWX 010536
TAFIAD
TAF
KIAD 010536Z 0106/0212 18006KT P6SM -SHRA BKN060
     FM010800 19005KT P6SM BKN060
     FM011300 21004KT P6SM -SHRA BKN080
     FM011600 23005KT P6SM SHRA VCTS BKN070CB
     FM012200 31004KT P6SM SHRA OVC040
     FM020100 05005KT P6SM SHRA OVC040
     FM020600 34004KT P6SM OVC020=

USA.gov is the U.S. government's official web portal to all federal, state and local government web resources and services.